sensor_id;sensor_type;location;lat;lon;timestamp;P1;durP1;ratioP1;P2;durP2;ratioP2
15385;SDS011;7791;47.246;9.648;2022-08-21T00:00:23;3.33;;;2.10;;
15385;SDS011;7791;47.246;9.648;2022-08-21T00:02:52;4.50;;;2.00;;
15385;SDS011;7791;47.246;9.648;2022-08-21T00:05:29;4.33;;;2.07;;
15385;SDS011;7791;47.246;9.648;2022-08-21T00:07:58;7.10;;;1.70;;
15385;SDS011;7791;47.246;9.648;2022-08-21T00:10:24;3.30;;;1.43;;
15385;SDS011;7791;47.246;9.648;2022-08-21T00:12:50;3.93;;;1.80;;
15385;SDS011;7791;47.246;9.648;2022-08-21T00:15:17;4.20;;;2.17;;
15385;SDS011;7791;47.246;9.648;2022-08-21T00:17:45;3.70;;;2.10;;
15385;SDS011;7791;47.246;9.648;2022-08-21T00:20:12;4.43;;;2.50;;
15385;SDS011;7791;47.246;9.648;2022-08-21T00:22:40;4.17;;;2.20;;
15385;SDS011;7791;47.246;9.648;2022-08-21T00:25:08;7.43;;;2.90;;
15385;SDS011;7791;47.246;9.648;2022-08-21T00:27:34;6.23;;;2.27;;
15385;SDS011;7791;47.246;9.648;2022-08-21T00:30:00;2.53;;;1.90;;
15385;SDS011;7791;47.246;9.648;2022-08-21T00:32:27;5.03;;;2.17;;
15385;SDS011;7791;47.246;9.648;2022-08-21T00:34:54;3.27;;;2.33;;
15385;SDS011;7791;47.246;9.648;2022-08-21T00:37:20;3.63;;;2.40;;
15385;SDS011;7791;47.246;9.648;2022-08-21T00:39:46;4.23;;;2.30;;
15385;SDS011;7791;47.246;9.648;2022-08-21T00:42:14;3.70;;;2.17;;
15385;SDS011;7791;47.246;9.648;2022-08-21T00:44:40;2.37;;;2.13;;
15385;SDS011;7791;47.246;9.648;2022-08-21T00:47:06;3.20;;;2.50;;
15385;SDS011;7791;47.246;9.648;2022-08-21T00:49:33;5.00;;;2.60;;
15385;SDS011;7791;47.246;9.648;2022-08-21T00:51:59;3.50;;;2.37;;
15385;SDS011;7791;47.246;9.648;2022-08-21T00:54:27;3.97;;;2.80;;
15385;SDS011;7791;47.246;9.648;2022-08-21T00:56:55;3.50;;;2.43;;
15385;SDS011;7791;47.246;9.648;2022-08-21T00:59:26;3.47;;;2.57;;
15385;SDS011;7791;47.246;9.648;2022-08-21T01:01:55;2.40;;;2.10;;
15385;SDS011;7791;47.246;9.648;2022-08-21T01:04:22;3.43;;;2.40;;
15385;SDS011;7791;47.246;9.648;2022-08-21T01:06:48;6.10;;;2.67;;
15385;SDS011;7791;47.246;9.648;2022-08-21T01:09:14;3.53;;;2.40;;
15385;SDS011;7791;47.246;9.648;2022-08-21T01:11:40;3.20;;;2.40;;
15385;SDS011;7791;47.246;9.648;2022-08-21T01:14:07;4.30;;;2.47;;
15385;SDS011;7791;47.246;9.648;2022-08-21T01:16:34;4.87;;;2.77;;
15385;SDS011;7791;47.246;9.648;2022-08-21T01:19:00;6.73;;;2.70;;
15385;SDS011;7791;47.246;9.648;2022-08-21T01:21:33;2.87;;;2.20;;
15385;SDS011;7791;47.246;9.648;2022-08-21T01:23:59;3.93;;;2.60;;
15385;SDS011;7791;47.246;9.648;2022-08-21T01:26:26;2.67;;;2.17;;
15385;SDS011;7791;47.246;9.648;2022-08-21T01:28:57;3.00;;;2.10;;
15385;SDS011;7791;47.246;9.648;2022-08-21T01:31:27;3.07;;;2.37;;
15385;SDS011;7791;47.246;9.648;2022-08-21T01:33:54;2.70;;;2.00;;
15385;SDS011;7791;47.246;9.648;2022-08-21T01:36:21;3.03;;;2.40;;
15385;SDS011;7791;47.246;9.648;2022-08-21T01:38:48;3.70;;;2.73;;
15385;SDS011;7791;47.246;9.648;2022-08-21T01:41:14;5.73;;;2.93;;
15385;SDS011;7791;47.246;9.648;2022-08-21T01:43:41;2.67;;;2.30;;
15385;SDS011;7791;47.246;9.648;2022-08-21T01:46:08;4.50;;;2.23;;
15385;SDS011;7791;47.246;9.648;2022-08-21T01:48:34;5.20;;;2.80;;
15385;SDS011;7791;47.246;9.648;2022-08-21T01:51:04;3.77;;;2.33;;
15385;SDS011;7791;47.246;9.648;2022-08-21T01:53:32;4.00;;;2.53;;
15385;SDS011;7791;47.246;9.648;2022-08-21T01:56:01;2.50;;;2.10;;
15385;SDS011;7791;47.246;9.648;2022-08-21T01:58:28;3.10;;;2.00;;
15385;SDS011;7791;47.246;9.648;2022-08-21T02:00:53;5.27;;;2.10;;
15385;SDS011;7791;47.246;9.648;2022-08-21T02:03:19;4.43;;;2.03;;
15385;SDS011;7791;47.246;9.648;2022-08-21T02:08:37;3.17;;;1.50;;
15385;SDS011;7791;47.246;9.648;2022-08-21T02:11:04;2.53;;;1.90;;
15385;SDS011;7791;47.246;9.648;2022-08-21T02:13:30;1.90;;;1.70;;
15385;SDS011;7791;47.246;9.648;2022-08-21T02:15:57;2.73;;;1.80;;
15385;SDS011;7791;47.246;9.648;2022-08-21T02:18:23;6.57;;;1.80;;
15385;SDS011;7791;47.246;9.648;2022-08-21T02:20:51;3.00;;;1.50;;
15385;SDS011;7791;47.246;9.648;2022-08-21T02:23:17;2.90;;;1.73;;
15385;SDS011;7791;47.246;9.648;2022-08-21T02:25:44;2.27;;;1.60;;
15385;SDS011;7791;47.246;9.648;2022-08-21T02:28:12;2.87;;;2.10;;
15385;SDS011;7791;47.246;9.648;2022-08-21T02:30:42;2.83;;;1.57;;
15385;SDS011;7791;47.246;9.648;2022-08-21T02:33:11;3.47;;;1.70;;
15385;SDS011;7791;47.246;9.648;2022-08-21T02:35:38;1.90;;;1.70;;
15385;SDS011;7791;47.246;9.648;2022-08-21T02:38:19;2.67;;;1.70;;
15385;SDS011;7791;47.246;9.648;2022-08-21T02:40:48;2.00;;;1.80;;
15385;SDS011;7791;47.246;9.648;2022-08-21T02:43:16;3.93;;;2.93;;
15385;SDS011;7791;47.246;9.648;2022-08-21T02:45:43;3.47;;;1.80;;
15385;SDS011;7791;47.246;9.648;2022-08-21T02:48:10;3.10;;;1.90;;
15385;SDS011;7791;47.246;9.648;2022-08-21T02:50:39;2.87;;;2.07;;
15385;SDS011;7791;47.246;9.648;2022-08-21T02:53:12;4.67;;;2.03;;
15385;SDS011;7791;47.246;9.648;2022-08-21T02:55:39;3.20;;;1.97;;
15385;SDS011;7791;47.246;9.648;2022-08-21T02:58:06;3.20;;;2.17;;
15385;SDS011;7791;47.246;9.648;2022-08-21T03:00:35;3.80;;;1.90;;
15385;SDS011;7791;47.246;9.648;2022-08-21T03:03:02;2.33;;;1.67;;
15385;SDS011;7791;47.246;9.648;2022-08-21T03:05:30;2.30;;;1.70;;
15385;SDS011;7791;47.246;9.648;2022-08-21T03:07:58;3.10;;;1.80;;
15385;SDS011;7791;47.246;9.648;2022-08-21T03:10:25;2.37;;;1.90;;
15385;SDS011;7791;47.246;9.648;2022-08-21T03:12:51;2.00;;;1.40;;
15385;SDS011;7791;47.246;9.648;2022-08-21T03:15:18;2.90;;;1.47;;
15385;SDS011;7791;47.246;9.648;2022-08-21T03:17:47;1.93;;;1.50;;
15385;SDS011;7791;47.246;9.648;2022-08-21T03:20:15;3.23;;;1.70;;
15385;SDS011;7791;47.246;9.648;2022-08-21T03:28:48;2.47;;;1.70;;
15385;SDS011;7791;47.246;9.648;2022-08-21T03:31:14;3.33;;;1.60;;
15385;SDS011;7791;47.246;9.648;2022-08-21T03:33:41;3.73;;;1.83;;
15385;SDS011;7791;47.246;9.648;2022-08-21T03:36:08;1.90;;;1.50;;
15385;SDS011;7791;47.246;9.648;2022-08-21T03:38:35;4.70;;;1.70;;
15385;SDS011;7791;47.246;9.648;2022-08-21T03:41:02;4.37;;;1.70;;
15385;SDS011;7791;47.246;9.648;2022-08-21T03:43:30;4.33;;;1.77;;
15385;SDS011;7791;47.246;9.648;2022-08-21T03:45:56;2.30;;;1.80;;
15385;SDS011;7791;47.246;9.648;2022-08-21T03:48:23;2.60;;;1.77;;
15385;SDS011;7791;47.246;9.648;2022-08-21T03:50:51;4.40;;;1.50;;
15385;SDS011;7791;47.246;9.648;2022-08-21T03:56:14;3.57;;;1.97;;
15385;SDS011;7791;47.246;9.648;2022-08-21T03:58:40;2.43;;;1.70;;
15385;SDS011;7791;47.246;9.648;2022-08-21T04:01:06;2.27;;;1.87;;
15385;SDS011;7791;47.246;9.648;2022-08-21T04:03:32;3.57;;;1.70;;
15385;SDS011;7791;47.246;9.648;2022-08-21T04:06:01;1.77;;;1.50;;
15385;SDS011;7791;47.246;9.648;2022-08-21T04:08:28;2.40;;;1.70;;
15385;SDS011;7791;47.246;9.648;2022-08-21T04:10:55;1.50;;;1.40;;
15385;SDS011;7791;47.246;9.648;2022-08-21T04:13:22;2.53;;;1.40;;
15385;SDS011;7791;47.246;9.648;2022-08-21T04:15:49;1.83;;;1.60;;
15385;SDS011;7791;47.246;9.648;2022-08-21T04:18:15;2.70;;;1.70;;
15385;SDS011;7791;47.246;9.648;2022-08-21T04:20:41;6.03;;;1.70;;
15385;SDS011;7791;47.246;9.648;2022-08-21T04:23:11;2.93;;;1.63;;
15385;SDS011;7791;47.246;9.648;2022-08-21T04:25:37;4.80;;;1.70;;
15385;SDS011;7791;47.246;9.648;2022-08-21T04:28:03;2.43;;;1.50;;
15385;SDS011;7791;47.246;9.648;2022-08-21T04:30:29;3.63;;;1.90;;
15385;SDS011;7791;47.246;9.648;2022-08-21T04:32:56;1.80;;;1.37;;
15385;SDS011;7791;47.246;9.648;2022-08-21T04:35:23;3.40;;;1.60;;
15385;SDS011;7791;47.246;9.648;2022-08-21T04:37:49;1.60;;;1.50;;
15385;SDS011;7791;47.246;9.648;2022-08-21T04:40:17;3.70;;;1.50;;
15385;SDS011;7791;47.246;9.648;2022-08-21T04:42:46;1.97;;;1.60;;
15385;SDS011;7791;47.246;9.648;2022-08-21T04:45:17;2.13;;;1.17;;
15385;SDS011;7791;47.246;9.648;2022-08-21T04:47:44;1.37;;;1.10;;
15385;SDS011;7791;47.246;9.648;2022-08-21T04:50:11;2.60;;;1.20;;
15385;SDS011;7791;47.246;9.648;2022-08-21T04:52:37;5.83;;;1.30;;
15385;SDS011;7791;47.246;9.648;2022-08-21T04:58:06;1.57;;;1.20;;
15385;SDS011;7791;47.246;9.648;2022-08-21T05:00:33;3.40;;;1.40;;
15385;SDS011;7791;47.246;9.648;2022-08-21T05:02:59;3.37;;;1.37;;
15385;SDS011;7791;47.246;9.648;2022-08-21T05:05:27;1.50;;;1.10;;
15385;SDS011;7791;47.246;9.648;2022-08-21T05:07:53;1.47;;;1.30;;
15385;SDS011;7791;47.246;9.648;2022-08-21T05:10:23;3.90;;;1.30;;
15385;SDS011;7791;47.246;9.648;2022-08-21T05:12:49;1.20;;;1.10;;
15385;SDS011;7791;47.246;9.648;2022-08-21T05:15:16;1.40;;;1.20;;
15385;SDS011;7791;47.246;9.648;2022-08-21T05:17:42;1.33;;;1.03;;
15385;SDS011;7791;47.246;9.648;2022-08-21T05:20:09;1.40;;;1.00;;
15385;SDS011;7791;47.246;9.648;2022-08-21T05:22:36;1.70;;;1.30;;
15385;SDS011;7791;47.246;9.648;2022-08-21T05:25:03;2.00;;;1.20;;
15385;SDS011;7791;47.246;9.648;2022-08-21T05:27:29;2.67;;;1.20;;
15385;SDS011;7791;47.246;9.648;2022-08-21T05:29:55;1.43;;;1.10;;
15385;SDS011;7791;47.246;9.648;2022-08-21T05:32:23;4.03;;;0.90;;
15385;SDS011;7791;47.246;9.648;2022-08-21T05:34:49;2.03;;;1.10;;
15385;SDS011;7791;47.246;9.648;2022-08-21T05:37:15;1.27;;;1.03;;
15385;SDS011;7791;47.246;9.648;2022-08-21T05:39:40;3.20;;;1.10;;
15385;SDS011;7791;47.246;9.648;2022-08-21T05:42:07;1.37;;;1.13;;
15385;SDS011;7791;47.246;9.648;2022-08-21T05:44:34;1.60;;;1.20;;
15385;SDS011;7791;47.246;9.648;2022-08-21T05:47:02;2.93;;;1.13;;
15385;SDS011;7791;47.246;9.648;2022-08-21T05:49:31;1.53;;;1.20;;
15385;SDS011;7791;47.246;9.648;2022-08-21T05:51:56;1.30;;;1.20;;
15385;SDS011;7791;47.246;9.648;2022-08-21T05:54:22;2.73;;;1.30;;
15385;SDS011;7791;47.246;9.648;2022-08-21T06:03:03;1.30;;;1.00;;
15385;SDS011;7791;47.246;9.648;2022-08-21T06:05:30;4.20;;;0.90;;
15385;SDS011;7791;47.246;9.648;2022-08-21T06:07:56;1.23;;;1.00;;
15385;SDS011;7791;47.246;9.648;2022-08-21T06:13:24;1.37;;;0.93;;
15385;SDS011;7791;47.246;9.648;2022-08-21T06:16:00;1.73;;;0.80;;
15385;SDS011;7791;47.246;9.648;2022-08-21T06:18:27;1.70;;;1.10;;
15385;SDS011;7791;47.246;9.648;2022-08-21T06:20:54;1.93;;;0.93;;
15385;SDS011;7791;47.246;9.648;2022-08-21T06:23:20;0.90;;;0.80;;
15385;SDS011;7791;47.246;9.648;2022-08-21T06:28:33;2.40;;;0.80;;
15385;SDS011;7791;47.246;9.648;2022-08-21T06:31:00;0.80;;;0.70;;
15385;SDS011;7791;47.246;9.648;2022-08-21T06:33:26;1.13;;;0.80;;
15385;SDS011;7791;47.246;9.648;2022-08-21T06:35:51;1.50;;;0.80;;
15385;SDS011;7791;47.246;9.648;2022-08-21T06:38:19;0.67;;;0.60;;
15385;SDS011;7791;47.246;9.648;2022-08-21T06:40:50;0.70;;;0.30;;
15385;SDS011;7791;47.246;9.648;2022-08-21T06:43:16;3.60;;;0.70;;
15385;SDS011;7791;47.246;9.648;2022-08-21T06:45:42;2.70;;;0.60;;
15385;SDS011;7791;47.246;9.648;2022-08-21T06:48:09;1.15;;;0.30;;
15385;SDS011;7791;47.246;9.648;2022-08-21T06:50:35;0.85;;;0.40;;
15385;SDS011;7791;47.246;9.648;2022-08-21T06:53:02;0.55;;;0.40;;
15385;SDS011;7791;47.246;9.648;2022-08-21T06:55:31;1.08;;;0.60;;
15385;SDS011;7791;47.246;9.648;2022-08-21T06:57:58;2.08;;;0.50;;
15385;SDS011;7791;47.246;9.648;2022-08-21T07:00:25;0.60;;;0.47;;
15385;SDS011;7791;47.246;9.648;2022-08-21T07:02:51;0.40;;;0.40;;
15385;SDS011;7791;47.246;9.648;2022-08-21T07:05:17;1.15;;;0.43;;
15385;SDS011;7791;47.246;9.648;2022-08-21T07:07:42;2.45;;;0.50;;
15385;SDS011;7791;47.246;9.648;2022-08-21T07:10:08;1.83;;;0.47;;
15385;SDS011;7791;47.246;9.648;2022-08-21T07:12:35;1.20;;;0.60;;
15385;SDS011;7791;47.246;9.648;2022-08-21T07:15:03;1.63;;;0.60;;
15385;SDS011;7791;47.246;9.648;2022-08-21T07:17:31;1.73;;;0.50;;
15385;SDS011;7791;47.246;9.648;2022-08-21T07:19:56;0.45;;;0.45;;
15385;SDS011;7791;47.246;9.648;2022-08-21T07:22:22;0.50;;;0.40;;
15385;SDS011;7791;47.246;9.648;2022-08-21T07:24:48;1.60;;;0.40;;
15385;SDS011;7791;47.246;9.648;2022-08-21T07:27:13;0.50;;;0.50;;
15385;SDS011;7791;47.246;9.648;2022-08-21T07:29:41;1.13;;;0.60;;
15385;SDS011;7791;47.246;9.648;2022-08-21T07:32:07;0.80;;;0.50;;
15385;SDS011;7791;47.246;9.648;2022-08-21T07:34:32;0.50;;;0.40;;
15385;SDS011;7791;47.246;9.648;2022-08-21T07:36:59;2.53;;;0.63;;
15385;SDS011;7791;47.246;9.648;2022-08-21T07:39:24;0.68;;;0.60;;
15385;SDS011;7791;47.246;9.648;2022-08-21T07:41:51;1.55;;;0.40;;
15385;SDS011;7791;47.246;9.648;2022-08-21T07:44:17;1.75;;;0.50;;
15385;SDS011;7791;47.246;9.648;2022-08-21T07:46:45;2.58;;;0.40;;
15385;SDS011;7791;47.246;9.648;2022-08-21T07:49:10;0.68;;;0.60;;
15385;SDS011;7791;47.246;9.648;2022-08-21T07:51:36;1.95;;;0.55;;
15385;SDS011;7791;47.246;9.648;2022-08-21T07:54:03;1.50;;;0.50;;
15385;SDS011;7791;47.246;9.648;2022-08-21T07:56:30;1.05;;;0.60;;
15385;SDS011;7791;47.246;9.648;2022-08-21T07:58:56;1.30;;;0.70;;
15385;SDS011;7791;47.246;9.648;2022-08-21T08:01:22;0.88;;;0.40;;
15385;SDS011;7791;47.246;9.648;2022-08-21T08:03:51;0.40;;;0.40;;
15385;SDS011;7791;47.246;9.648;2022-08-21T08:06:17;0.50;;;0.50;;
15385;SDS011;7791;47.246;9.648;2022-08-21T08:08:43;1.95;;;0.52;;
15385;SDS011;7791;47.246;9.648;2022-08-21T08:11:10;1.10;;;0.30;;
15385;SDS011;7791;47.246;9.648;2022-08-21T08:13:40;0.93;;;0.50;;
15385;SDS011;7791;47.246;9.648;2022-08-21T08:16:08;0.95;;;0.50;;
15385;SDS011;7791;47.246;9.648;2022-08-21T08:18:34;0.63;;;0.50;;
15385;SDS011;7791;47.246;9.648;2022-08-21T08:21:02;0.50;;;0.40;;
15385;SDS011;7791;47.246;9.648;2022-08-21T08:23:28;1.75;;;0.50;;
15385;SDS011;7791;47.246;9.648;2022-08-21T08:25:54;0.82;;;0.52;;
15385;SDS011;7791;47.246;9.648;2022-08-21T08:28:20;1.95;;;0.50;;
15385;SDS011;7791;47.246;9.648;2022-08-21T08:30:45;0.82;;;0.45;;
15385;SDS011;7791;47.246;9.648;2022-08-21T08:33:11;4.05;;;0.50;;
15385;SDS011;7791;47.246;9.648;2022-08-21T08:35:37;3.03;;;0.50;;
15385;SDS011;7791;47.246;9.648;2022-08-21T08:38:05;1.85;;;0.43;;
15385;SDS011;7791;47.246;9.648;2022-08-21T08:40:32;2.38;;;0.30;;
15385;SDS011;7791;47.246;9.648;2022-08-21T08:43:02;1.65;;;0.47;;
15385;SDS011;7791;47.246;9.648;2022-08-21T08:45:28;1.38;;;0.45;;
15385;SDS011;7791;47.246;9.648;2022-08-21T08:48:00;1.02;;;0.40;;
15385;SDS011;7791;47.246;9.648;2022-08-21T08:50:36;1.30;;;0.60;;
15385;SDS011;7791;47.246;9.648;2022-08-21T08:53:07;1.58;;;0.40;;
15385;SDS011;7791;47.246;9.648;2022-08-21T08:55:38;1.60;;;0.60;;
15385;SDS011;7791;47.246;9.648;2022-08-21T08:58:06;1.63;;;0.50;;
15385;SDS011;7791;47.246;9.648;2022-08-21T09:00:33;4.45;;;0.50;;
15385;SDS011;7791;47.246;9.648;2022-08-21T09:03:01;0.40;;;0.40;;
15385;SDS011;7791;47.246;9.648;2022-08-21T09:05:28;0.63;;;0.40;;
15385;SDS011;7791;47.246;9.648;2022-08-21T09:08:02;0.68;;;0.38;;
15385;SDS011;7791;47.246;9.648;2022-08-21T09:10:44;0.60;;;0.40;;
15385;SDS011;7791;47.246;9.648;2022-08-21T09:13:17;0.50;;;0.40;;
15385;SDS011;7791;47.246;9.648;2022-08-21T09:15:51;1.95;;;0.40;;
15385;SDS011;7791;47.246;9.648;2022-08-21T09:18:28;1.40;;;0.70;;
15385;SDS011;7791;47.246;9.648;2022-08-21T09:21:03;0.47;;;0.47;;
15385;SDS011;7791;47.246;9.648;2022-08-21T09:23:43;1.95;;;0.57;;
15385;SDS011;7791;47.246;9.648;2022-08-21T09:26:21;0.60;;;0.60;;
15385;SDS011;7791;47.246;9.648;2022-08-21T09:28:50;1.15;;;0.68;;
15385;SDS011;7791;47.246;9.648;2022-08-21T09:31:21;1.02;;;0.68;;
15385;SDS011;7791;47.246;9.648;2022-08-21T09:33:48;3.88;;;0.65;;
15385;SDS011;7791;47.246;9.648;2022-08-21T09:36:22;0.70;;;0.70;;
15385;SDS011;7791;47.246;9.648;2022-08-21T09:38:55;1.08;;;0.60;;
15385;SDS011;7791;47.246;9.648;2022-08-21T09:41:25;0.57;;;0.57;;
15385;SDS011;7791;47.246;9.648;2022-08-21T09:43:54;1.27;;;0.68;;
15385;SDS011;7791;47.246;9.648;2022-08-21T09:46:21;0.60;;;0.60;;
15385;SDS011;7791;47.246;9.648;2022-08-21T09:48:49;1.15;;;0.75;;
15385;SDS011;7791;47.246;9.648;2022-08-21T09:51:18;2.05;;;0.80;;
15385;SDS011;7791;47.246;9.648;2022-08-21T09:53:47;0.65;;;0.65;;
15385;SDS011;7791;47.246;9.648;2022-08-21T09:56:18;0.60;;;0.60;;
15385;SDS011;7791;47.246;9.648;2022-08-21T09:58:56;1.92;;;0.90;;
15385;SDS011;7791;47.246;9.648;2022-08-21T10:01:22;0.90;;;0.80;;
15385;SDS011;7791;47.246;9.648;2022-08-21T10:04:01;0.77;;;0.77;;
15385;SDS011;7791;47.246;9.648;2022-08-21T10:06:28;0.73;;;0.73;;
15385;SDS011;7791;47.246;9.648;2022-08-21T10:09:02;1.05;;;0.73;;
15385;SDS011;7791;47.246;9.648;2022-08-21T10:11:31;2.65;;;1.05;;
15385;SDS011;7791;47.246;9.648;2022-08-21T10:13:59;1.45;;;0.70;;
15385;SDS011;7791;47.246;9.648;2022-08-21T10:16:35;1.02;;;0.90;;
15385;SDS011;7791;47.246;9.648;2022-08-21T10:19:12;1.27;;;0.70;;
15385;SDS011;7791;47.246;9.648;2022-08-21T10:21:47;1.25;;;0.77;;
15385;SDS011;7791;47.246;9.648;2022-08-21T10:24:32;1.10;;;1.00;;
15385;SDS011;7791;47.246;9.648;2022-08-21T10:27:09;0.70;;;0.70;;
15385;SDS011;7791;47.246;9.648;2022-08-21T10:29:45;0.85;;;0.70;;
15385;SDS011;7791;47.246;9.648;2022-08-21T10:32:22;1.67;;;0.88;;
15385;SDS011;7791;47.246;9.648;2022-08-21T10:35:08;0.73;;;0.73;;
15385;SDS011;7791;47.246;9.648;2022-08-21T10:37:41;1.77;;;0.80;;
15385;SDS011;7791;47.246;9.648;2022-08-21T10:40:20;1.80;;;0.77;;
15385;SDS011;7791;47.246;9.648;2022-08-21T10:42:55;1.13;;;0.60;;
15385;SDS011;7791;47.246;9.648;2022-08-21T10:45:42;1.05;;;0.70;;
15385;SDS011;7791;47.246;9.648;2022-08-21T10:48:16;1.50;;;0.90;;
15385;SDS011;7791;47.246;9.648;2022-08-21T10:50:50;0.80;;;0.80;;
15385;SDS011;7791;47.246;9.648;2022-08-21T10:53:30;0.70;;;0.70;;
15385;SDS011;7791;47.246;9.648;2022-08-21T10:56:10;2.13;;;0.80;;
15385;SDS011;7791;47.246;9.648;2022-08-21T10:58:45;0.65;;;0.60;;
15385;SDS011;7791;47.246;9.648;2022-08-21T11:01:16;2.17;;;0.90;;
15385;SDS011;7791;47.246;9.648;2022-08-21T11:03:50;2.97;;;0.98;;
15385;SDS011;7791;47.246;9.648;2022-08-21T11:06:20;0.85;;;0.80;;
15385;SDS011;7791;47.246;9.648;2022-08-21T11:08:49;1.67;;;0.80;;
15385;SDS011;7791;47.246;9.648;2022-08-21T11:11:20;1.30;;;0.88;;
15385;SDS011;7791;47.246;9.648;2022-08-21T11:13:51;0.77;;;0.70;;
15385;SDS011;7791;47.246;9.648;2022-08-21T11:16:28;1.25;;;0.90;;
15385;SDS011;7791;47.246;9.648;2022-08-21T11:19:02;1.75;;;0.60;;
15385;SDS011;7791;47.246;9.648;2022-08-21T11:21:36;0.98;;;0.82;;
15385;SDS011;7791;47.246;9.648;2022-08-21T11:24:16;1.10;;;1.00;;
15385;SDS011;7791;47.246;9.648;2022-08-21T11:26:50;0.98;;;0.77;;
15385;SDS011;7791;47.246;9.648;2022-08-21T11:29:25;0.88;;;0.88;;
15385;SDS011;7791;47.246;9.648;2022-08-21T11:32:01;2.03;;;0.90;;
15385;SDS011;7791;47.246;9.648;2022-08-21T11:34:40;2.08;;;1.13;;
15385;SDS011;7791;47.246;9.648;2022-08-21T11:37:18;1.17;;;1.08;;
15385;SDS011;7791;47.246;9.648;2022-08-21T11:39:50;2.70;;;1.02;;
15385;SDS011;7791;47.246;9.648;2022-08-21T11:42:29;1.90;;;1.23;;
15385;SDS011;7791;47.246;9.648;2022-08-21T11:45:11;1.67;;;1.02;;
15385;SDS011;7791;47.246;9.648;2022-08-21T11:47:48;1.60;;;1.15;;
15385;SDS011;7791;47.246;9.648;2022-08-21T11:50:20;1.20;;;1.10;;
15385;SDS011;7791;47.246;9.648;2022-08-21T11:52:50;2.13;;;0.98;;
15385;SDS011;7791;47.246;9.648;2022-08-21T11:55:22;3.05;;;1.17;;
15385;SDS011;7791;47.246;9.648;2022-08-21T11:57:57;1.30;;;1.10;;
15385;SDS011;7791;47.246;9.648;2022-08-21T12:00:29;1.05;;;0.95;;
15385;SDS011;7791;47.246;9.648;2022-08-21T12:06:00;1.10;;;1.00;;
15385;SDS011;7791;47.246;9.648;2022-08-21T12:08:30;1.63;;;1.17;;
15385;SDS011;7791;47.246;9.648;2022-08-21T12:11:02;2.65;;;1.08;;
15385;SDS011;7791;47.246;9.648;2022-08-21T12:13:31;1.23;;;0.80;;
15385;SDS011;7791;47.246;9.648;2022-08-21T12:21:53;2.28;;;1.10;;
15385;SDS011;7791;47.246;9.648;2022-08-21T12:24:31;1.75;;;1.10;;
15385;SDS011;7791;47.246;9.648;2022-08-21T12:27:01;1.23;;;1.00;;
15385;SDS011;7791;47.246;9.648;2022-08-21T12:29:45;1.20;;;0.85;;
15385;SDS011;7791;47.246;9.648;2022-08-21T12:32:23;0.90;;;0.90;;
15385;SDS011;7791;47.246;9.648;2022-08-21T12:34:54;1.85;;;0.80;;
15385;SDS011;7791;47.246;9.648;2022-08-21T12:37:27;1.88;;;0.95;;
15385;SDS011;7791;47.246;9.648;2022-08-21T12:40:02;1.23;;;0.85;;
15385;SDS011;7791;47.246;9.648;2022-08-21T12:42:31;2.17;;;1.02;;
15385;SDS011;7791;47.246;9.648;2022-08-21T12:45:03;1.98;;;1.00;;
15385;SDS011;7791;47.246;9.648;2022-08-21T12:47:43;3.05;;;0.90;;
15385;SDS011;7791;47.246;9.648;2022-08-21T12:50:15;1.83;;;1.05;;
15385;SDS011;7791;47.246;9.648;2022-08-21T12:52:45;2.90;;;1.10;;
15385;SDS011;7791;47.246;9.648;2022-08-21T12:55:25;1.73;;;0.90;;
15385;SDS011;7791;47.246;9.648;2022-08-21T12:57:52;1.48;;;0.77;;
15385;SDS011;7791;47.246;9.648;2022-08-21T13:00:20;2.00;;;0.90;;
15385;SDS011;7791;47.246;9.648;2022-08-21T13:02:50;1.75;;;1.10;;
15385;SDS011;7791;47.246;9.648;2022-08-21T13:08:09;1.15;;;0.70;;
15385;SDS011;7791;47.246;9.648;2022-08-21T13:10:37;1.52;;;0.90;;
15385;SDS011;7791;47.246;9.648;2022-08-21T13:13:06;1.95;;;0.80;;
15385;SDS011;7791;47.246;9.648;2022-08-21T13:15:37;1.10;;;0.95;;
15385;SDS011;7791;47.246;9.648;2022-08-21T13:18:07;3.33;;;0.90;;
15385;SDS011;7791;47.246;9.648;2022-08-21T13:23:33;1.40;;;0.85;;
15385;SDS011;7791;47.246;9.648;2022-08-21T13:25:59;1.75;;;0.73;;
15385;SDS011;7791;47.246;9.648;2022-08-21T13:28:32;1.38;;;0.80;;
15385;SDS011;7791;47.246;9.648;2022-08-21T13:31:00;2.33;;;0.90;;
15385;SDS011;7791;47.246;9.648;2022-08-21T13:33:27;2.28;;;0.93;;
15385;SDS011;7791;47.246;9.648;2022-08-21T13:35:57;0.80;;;0.80;;
15385;SDS011;7791;47.246;9.648;2022-08-21T13:38:31;0.82;;;0.80;;
15385;SDS011;7791;47.246;9.648;2022-08-21T13:41:02;3.05;;;1.02;;
15385;SDS011;7791;47.246;9.648;2022-08-21T13:43:32;2.08;;;1.00;;
15385;SDS011;7791;47.246;9.648;2022-08-21T13:46:00;1.30;;;0.90;;
15385;SDS011;7791;47.246;9.648;2022-08-21T13:48:30;5.13;;;1.13;;
15385;SDS011;7791;47.246;9.648;2022-08-21T13:50:58;1.27;;;0.88;;
15385;SDS011;7791;47.246;9.648;2022-08-21T13:53:27;0.75;;;0.73;;
15385;SDS011;7791;47.246;9.648;2022-08-21T13:55:56;1.73;;;1.10;;
15385;SDS011;7791;47.246;9.648;2022-08-21T13:58:26;2.03;;;0.90;;
15385;SDS011;7791;47.246;9.648;2022-08-21T14:00:54;1.90;;;0.82;;
15385;SDS011;7791;47.246;9.648;2022-08-21T14:03:34;3.25;;;0.88;;
15385;SDS011;7791;47.246;9.648;2022-08-21T14:06:02;2.85;;;1.00;;
15385;SDS011;7791;47.246;9.648;2022-08-21T14:08:37;1.65;;;0.90;;
15385;SDS011;7791;47.246;9.648;2022-08-21T14:11:04;2.03;;;0.90;;
15385;SDS011;7791;47.246;9.648;2022-08-21T14:13:34;3.03;;;0.95;;
15385;SDS011;7791;47.246;9.648;2022-08-21T14:16:03;1.33;;;1.00;;
15385;SDS011;7791;47.246;9.648;2022-08-21T14:18:46;2.88;;;1.00;;
15385;SDS011;7791;47.246;9.648;2022-08-21T14:21:23;1.30;;;0.90;;
15385;SDS011;7791;47.246;9.648;2022-08-21T14:24:05;2.30;;;0.95;;
15385;SDS011;7791;47.246;9.648;2022-08-21T14:26:37;2.85;;;0.95;;
15385;SDS011;7791;47.246;9.648;2022-08-21T14:29:11;1.45;;;0.90;;
15385;SDS011;7791;47.246;9.648;2022-08-21T14:31:40;0.88;;;0.80;;
15385;SDS011;7791;47.246;9.648;2022-08-21T14:34:08;2.38;;;0.82;;
15385;SDS011;7791;47.246;9.648;2022-08-21T14:36:37;2.22;;;0.95;;
15385;SDS011;7791;47.246;9.648;2022-08-21T14:39:03;0.80;;;0.80;;
15385;SDS011;7791;47.246;9.648;2022-08-21T14:41:29;2.85;;;0.90;;
15385;SDS011;7791;47.246;9.648;2022-08-21T14:43:55;2.70;;;1.00;;
15385;SDS011;7791;47.246;9.648;2022-08-21T14:46:23;2.17;;;0.90;;
15385;SDS011;7791;47.246;9.648;2022-08-21T14:48:51;1.63;;;0.88;;
15385;SDS011;7791;47.246;9.648;2022-08-21T14:51:19;1.45;;;0.80;;
15385;SDS011;7791;47.246;9.648;2022-08-21T14:53:46;2.15;;;1.05;;
15385;SDS011;7791;47.246;9.648;2022-08-21T14:56:13;1.60;;;1.05;;
15385;SDS011;7791;47.246;9.648;2022-08-21T14:58:41;1.40;;;0.75;;
15385;SDS011;7791;47.246;9.648;2022-08-21T15:01:09;2.15;;;0.80;;
15385;SDS011;7791;47.246;9.648;2022-08-21T15:03:37;2.28;;;0.65;;
15385;SDS011;7791;47.246;9.648;2022-08-21T15:06:05;1.25;;;0.80;;
15385;SDS011;7791;47.246;9.648;2022-08-21T15:08:34;1.10;;;0.70;;
15385;SDS011;7791;47.246;9.648;2022-08-21T15:11:00;1.00;;;0.80;;
15385;SDS011;7791;47.246;9.648;2022-08-21T15:13:28;1.65;;;0.65;;
15385;SDS011;7791;47.246;9.648;2022-08-21T15:15:54;1.85;;;0.68;;
15385;SDS011;7791;47.246;9.648;2022-08-21T15:18:20;0.65;;;0.50;;
15385;SDS011;7791;47.246;9.648;2022-08-21T15:20:49;1.27;;;0.60;;
15385;SDS011;7791;47.246;9.648;2022-08-21T15:23:26;1.08;;;0.70;;
15385;SDS011;7791;47.246;9.648;2022-08-21T15:25:54;1.23;;;0.90;;
15385;SDS011;7791;47.246;9.648;2022-08-21T15:28:20;0.93;;;0.70;;
15385;SDS011;7791;47.246;9.648;2022-08-21T15:30:46;1.83;;;0.68;;
15385;SDS011;7791;47.246;9.648;2022-08-21T15:33:12;0.50;;;0.50;;
15385;SDS011;7791;47.246;9.648;2022-08-21T15:35:38;1.00;;;0.55;;
15385;SDS011;7791;47.246;9.648;2022-08-21T15:38:06;0.82;;;0.68;;
15385;SDS011;7791;47.246;9.648;2022-08-21T15:40:33;2.15;;;0.70;;
15385;SDS011;7791;47.246;9.648;2022-08-21T15:43:03;1.08;;;0.63;;
15385;SDS011;7791;47.246;9.648;2022-08-21T15:45:31;0.60;;;0.50;;
15385;SDS011;7791;47.246;9.648;2022-08-21T15:47:59;1.02;;;0.68;;
15385;SDS011;7791;47.246;9.648;2022-08-21T15:50:26;2.05;;;0.70;;
15385;SDS011;7791;47.246;9.648;2022-08-21T15:52:53;0.90;;;0.50;;